Phil's Backyard

 Latitude S 29° 46' 26"    Longitude E 151° 07' 14"    Elevation 586 m

:now: :today: :yesterday: :daily data: :this month: :this year: :records: :monthly records:
:gauges: :graphs: :weatherzone: :forum: :dashboard: :webcam:


A Fire Weather Index for personal weather stations

(See below the table for background)
Legend:
Low (0-210)
Very High (490 - 630)

Moderate (210 - 350)
Extreme (630 - 800)

High (350 - 490)
Catastrophic (800+)


Flame  Flame
187.1
Date Temp. (°C) Wind Speed (km/h) Rain (mm) RH Days since Rain pwsFWI
Prediction is active (including today!), values are above red line.
22/05/21 19.0 9.0 0.0 0.40 7 147.3
21/05/21 19.0 11.0 0.0 0.46 6 162.5
20/05/21 18.0 8.0 0.0 0.45 5 171.7
19/05/21 18.0 9.0 0.0 0.40 4 184.6
18/05/21 18.0 9.0 0.0 0.44 3 187.1
17/05/21 17.3 12.9 0.0 0.42 2 200.5
16/05/21 18.2 12.9 0.0 0.26 1 197.0
15/05/21 16.7 17.7 0.2 0.46 0 193.2
14/05/21 18.5 14.5 0.0 0.48 2 122.0
13/05/21 17.8 11.3 0.0 0.44 1 99.9
12/05/21 22.9 12.9 0.2 0.51 0 81.0
11/05/21 22.7 12.9 0.0 0.62 1 62.1
10/05/21 22.4 12.9 0.2 0.47 0 55.7
09/05/21 21.6 16.1 19.6 0.68 0 43.0
08/05/21 22.3 6.4 0.0 0.68 2 60.2
07/05/21 18.4 8.0 0.0 0.77 1 80.3
06/05/21 18.5 12.9 0.8 0.72 0 110.1
05/05/21 15.3 14.5 6.0 0.81 0 131.0
04/05/21 21.7 12.9 28.0 0.63 0 158.0
03/05/21 24.3 6.4 0.0 0.38 3 169.9
02/05/21 24.2 9.7 0.0 0.45 2 161.8
01/05/21 23.1 12.9 0.0 0.47 1 139.4
30/04/21 23.8 9.7 0.2 0.42 0 126.7
29/04/21 23.6 6.4 0.0 0.41 9 124.8
28/04/21 23.7 4.8 0.0 0.39 8 133.9
27/04/21 23.3 4.8 0.0 0.38 7 157.0
26/04/21 22.6 3.2 0.0 0.39 6 208.6
25/04/21 23.0 6.4 0.0 0.25 5 241.6
24/04/21 22.2 6.4 0.0 0.35 4 239.2
23/04/21 19.9 11.3 0.0 0.39 3 244.6
22/04/21 19.2 12.9 0.0 0.28 2 183.0
21/04/21 22.1 19.3 0.0 0.32 1 215.3
20/04/21 22.4 12.9 0.2 0.36 0 182.6
19/04/21 22.4 8.0 0.0 0.41 1 181.2
18/04/21 20.7 11.3 0.2 0.48 0 214.5
17/04/21 15.3 14.5 25.0 0.73 0 229.3
16/04/21 27.3 14.5 0.0 0.29 6 309.1
15/04/21 26.4 8.0 0.0 0.31 5 288.2
14/04/21 24.2 11.3 0.0 0.38 4 307.7
13/04/21 22.7 8.0 0.0 0.29 3 304.1
12/04/21 19.4 12.9 0.0 0.33 2 271.8
11/04/21 20.9 20.9 0.0 0.24 1 232.0
10/04/21 24.6 16.1 0.2 0.45 0 180.5
09/04/21 26.6 14.5 0.0 0.42 2 157.6
08/04/21 27.1 9.7 0.0 0.43 1 146.8
07/04/21 27.9 14.5 1.2 0.50 0 190.5
06/04/21 23.6 12.9 1.4 0.65 0 218.8
05/04/21 25.9 9.7 0.0 0.57 12 264.1
04/04/21 23.9 12.9 0.0 0.61 11 277.7
03/04/21 23.7 17.7 0.0 0.53 10 294.8
02/04/21 26.5 14.5 0.0 0.43 9 291.4
01/04/21 27.4 9.7 0.0 0.40 8 279.0
31/03/21 25.8 11.3 0.0 0.38 7 282.5
30/03/21 26.3 9.7 0.0 0.36 6 281.9
29/03/21 26.6 11.3 0.0 0.39 5 291.5
28/03/21 26.0 11.3 0.0 0.39 4 189.6
27/03/21 25.3 12.9 0.0 0.45 3 195.4
26/03/21 25.7 11.3 0.0 0.37 2 148.8
25/03/21 24.7 14.5 0.0 0.48 1 100.9
24/03/21 24.8 17.7 0.2 0.52 0 53.1

Science background here. Prediction: https://www.yourweather.co.uk/
:now: :today: :yesterday: :daily data: :this month: :this year: :records: :monthly records:
:gauges: :graphs: :weatherzone: :forum: :dashboard: ::
:
fire index: :fwi graphs: :top10: :extremes: :sysinfo:


Page updated daily at 9:00 AM
powered by CumulusMX v3.1.2 (3055) Valid HTML | Valid CSS
this page by Hans Rottier from the Cumulus Forum

Cumulus Top Weather Sites